Time;durP1;ratioP1;P1;durP2;ratioP2;P2;SDS_P1;SDS_P2;PMS_P1;PMS_P2;Temp;Humidity;BMP_temperature;BMP_pressure;BME280_temperature;BME280_humidity;BME280_pressure;Samples;Min_cycle;Max_cycle;Signal;HPM_P1;HPM_P2
2023/06/01 00:00:14;;;;;;;;;;;11.90;99.90;;;;;;5073761;28;19924;-79
2023/06/01 00:02:40;;;;;;;;;;;11.90;99.90;;;;;;5074848;28;19924;-79
2023/06/01 00:05:06;;;;;;;;;;;11.90;99.90;;;;;;5072035;28;19998;-78
2023/06/01 00:07:32;;;;;;;;;;;11.90;99.90;;;;;;5055561;28;20357;-79
2023/06/01 00:09:59;;;;;;;;;;;11.90;99.90;;;;;;5072654;28;19932;-79
2023/06/01 00:12:25;;;;;;;;;;;11.80;99.90;;;;;;5104236;27;19928;-79
2023/06/01 00:14:50;;;;;;;;;;;11.80;99.90;;;;;;5085846;28;20360;-80
2023/06/01 00:17:16;;;;;;;;;;;11.80;99.90;;;;;;5068478;28;19985;-80
2023/06/01 00:19:44;;;;;;;;;;;11.80;99.90;;;;;;5086258;28;19982;-80
2023/06/01 00:22:10;;;;;;;;;;;11.80;99.90;;;;;;5067122;28;19928;-80
2023/06/01 00:24:36;;;;;;;;;;;11.80;99.90;;;;;;5056160;28;19925;-79
2023/06/01 00:27:02;;;;;;;;;;;11.80;99.90;;;;;;5056325;28;19974;-78
2023/06/01 00:29:28;;;;;;;;;;;11.80;99.90;;;;;;5072681;28;19954;-79
2023/06/01 00:31:54;;;;;;;;;;;11.80;99.90;;;;;;5058531;28;19928;-79
2023/06/01 00:34:20;;;;;;;;;;;11.80;99.90;;;;;;5084737;28;19940;-80
2023/06/01 00:36:45;;;;;;;;;;;11.80;99.90;;;;;;5062076;28;19928;-79
2023/06/01 00:39:11;;;;;;;;;;;11.80;99.90;;;;;;5056048;28;19951;-79
2023/06/01 00:41:36;;;;;;;;;;;11.80;99.90;;;;;;5038043;28;19929;-79
2023/06/01 00:44:02;;;;;;;;;;;11.80;99.90;;;;;;5069635;28;19947;-77
2023/06/01 00:46:29;;;;;;;;;;;11.70;99.90;;;;;;5072682;28;19996;-79
2023/06/01 00:48:55;;;;;;;;;;;11.70;99.90;;;;;;5078272;28;19932;-79
2023/06/01 00:51:21;;;;;;;;;;;11.70;99.90;;;;;;5092117;28;20091;-78
2023/06/01 00:53:46;;;;;;;;;;;11.70;99.90;;;;;;5065768;28;19928;-79
2023/06/01 00:56:12;;;;;;;;;;;11.70;99.90;;;;;;5093432;28;19924;-79
2023/06/01 00:58:39;;;;;;;;;;;11.80;99.90;;;;;;5101025;28;19960;-79
2023/06/01 01:01:04;;;;;;;;;;;11.80;99.90;;;;;;5063524;28;20420;-78
2023/06/01 01:03:31;;;;;;;;;;;11.80;99.90;;;;;;5077898;28;19940;-79
2023/06/01 01:06:17;;;;;;;;;;;11.80;99.90;;;;;;5077561;28;19955;-79
2023/06/01 01:08:49;;;;;;;;;;;11.80;99.90;;;;;;5067751;28;19928;-79
2023/06/01 01:11:21;;;;;;;;;;;11.80;99.90;;;;;;5055238;28;20204;-78
2023/06/01 01:14:16;;;;;;;;;;;11.80;99.90;;;;;;5069949;28;19932;-79
2023/06/01 01:16:47;;;;;;;;;;;11.80;99.90;;;;;;5033101;28;19936;-79
2023/06/01 01:19:32;;;;;;;;;;;11.80;99.90;;;;;;5058662;28;19924;-79
2023/06/01 01:22:07;;;;;;;;;;;11.70;99.90;;;;;;5074873;28;19967;-78
2023/06/01 01:24:45;;;;;;;;;;;11.70;99.90;;;;;;5081519;28;19924;-78
2023/06/01 01:27:17;;;;;;;;;;;11.60;99.90;;;;;;5094313;28;19928;-78
2023/06/01 01:29:43;;;;;;;;;;;11.60;99.90;;;;;;5094226;28;19928;-78
2023/06/01 01:32:10;;;;;;;;;;;11.60;99.90;;;;;;5081372;28;19969;-78
2023/06/01 01:34:37;;;;;;;;;;;11.70;99.90;;;;;;5076784;28;19974;-78
2023/06/01 01:37:02;;;;;;;;;;;11.70;99.90;;;;;;5090134;28;19980;-78
2023/06/01 01:39:28;;;;;;;;;;;11.70;99.90;;;;;;5091577;28;20273;-79
2023/06/01 01:41:54;;;;;;;;;;;11.70;99.90;;;;;;5077139;28;19928;-79
2023/06/01 01:44:20;;;;;;;;;;;11.70;99.90;;;;;;5101298;28;19928;-78
2023/06/01 01:46:49;;;;;;;;;;;11.70;99.90;;;;;;5091947;28;19955;-79
2023/06/01 01:49:17;;;;;;;;;;;11.70;99.90;;;;;;5072150;28;19924;-79
2023/06/01 01:51:51;;;;;;;;;;;11.70;99.90;;;;;;5085997;28;19971;-79
2023/06/01 01:54:18;;;;;;;;;;;11.70;99.90;;;;;;5089129;28;19924;-79
2023/06/01 01:56:44;;;;;;;;;;;11.70;99.90;;;;;;5058597;28;19979;-79
2023/06/01 01:59:10;;;;;;;;;;;11.70;99.90;;;;;;5072141;28;20383;-79
2023/06/01 02:01:36;;;;;;;;;;;11.70;99.90;;;;;;5075463;28;20250;-79
2023/06/01 02:04:03;;;;;;;;;;;11.70;99.90;;;;;;5056158;28;20406;-78
2023/06/01 02:06:29;;;;;;;;;;;11.70;99.90;;;;;;5089569;28;20471;-79
2023/06/01 02:08:55;;;;;;;;;;;11.70;99.90;;;;;;5057646;28;19928;-79
2023/06/01 02:11:20;;;;;;;;;;;11.70;99.90;;;;;;5091062;28;19932;-79
2023/06/01 02:13:46;;;;;;;;;;;11.70;99.90;;;;;;5087580;28;19928;-79
2023/06/01 02:16:12;;;;;;;;;;;11.70;99.90;;;;;;5072717;28;20058;-79
2023/06/01 02:18:39;;;;;;;;;;;11.70;99.90;;;;;;5040614;28;20468;-79
2023/06/01 02:21:05;;;;;;;;;;;11.70;99.90;;;;;;5058253;28;20301;-79
2023/06/01 02:23:30;;;;;;;;;;;11.70;99.90;;;;;;5050743;28;19936;-80
2023/06/01 02:25:56;;;;;;;;;;;11.60;99.90;;;;;;5104660;27;20027;-79
2023/06/01 02:28:21;;;;;;;;;;;11.60;99.90;;;;;;5073963;28;19935;-79
2023/06/01 02:30:47;;;;;;;;;;;11.60;99.90;;;;;;5079375;28;20336;-79
2023/06/01 02:33:13;;;;;;;;;;;11.60;99.90;;;;;;5056524;28;19928;-80
2023/06/01 02:35:39;;;;;;;;;;;11.60;99.90;;;;;;5058345;28;19939;-79
2023/06/01 02:38:05;;;;;;;;;;;11.60;99.90;;;;;;5073181;28;20020;-79
2023/06/01 02:40:30;;;;;;;;;;;11.60;99.90;;;;;;5074332;28;19979;-80
2023/06/01 02:42:56;;;;;;;;;;;11.50;99.90;;;;;;5047335;28;19932;-80
2023/06/01 02:45:21;;;;;;;;;;;11.60;99.90;;;;;;5057163;28;19925;-80
2023/06/01 02:47:47;;;;;;;;;;;11.50;99.90;;;;;;5070889;28;19952;-79
2023/06/01 02:50:13;;;;;;;;;;;11.60;99.90;;;;;;5057566;28;19929;-80
2023/06/01 02:52:38;;;;;;;;;;;11.50;99.90;;;;;;5105945;27;19939;-79
2023/06/01 02:55:04;;;;;;;;;;;11.50;99.90;;;;;;5071999;28;20055;-78
2023/06/01 02:57:30;;;;;;;;;;;11.50;99.90;;;;;;5057993;28;19928;-79
2023/06/01 02:59:55;;;;;;;;;;;11.50;99.90;;;;;;5053777;28;19994;-79
2023/06/01 03:02:21;;;;;;;;;;;11.50;99.90;;;;;;5072730;28;20304;-80
2023/06/01 03:04:48;;;;;;;;;;;11.50;99.90;;;;;;5072723;28;19948;-79
2023/06/01 03:07:14;;;;;;;;;;;11.50;99.90;;;;;;5090550;28;19955;-79
2023/06/01 03:09:40;;;;;;;;;;;11.40;99.90;;;;;;5072207;28;19924;-79
2023/06/01 03:12:06;;;;;;;;;;;11.40;99.90;;;;;;5070922;28;20388;-79
2023/06/01 03:14:32;;;;;;;;;;;11.40;99.90;;;;;;5072413;28;19944;-79
2023/06/01 03:16:57;;;;;;;;;;;11.40;99.90;;;;;;5058126;28;19960;-79
2023/06/01 03:19:23;;;;;;;;;;;11.40;99.90;;;;;;5086145;28;19971;-80
2023/06/01 03:21:48;;;;;;;;;;;11.40;99.90;;;;;;5071068;28;19936;-80
2023/06/01 03:24:14;;;;;;;;;;;11.40;99.90;;;;;;5073735;28;19929;-79
2023/06/01 03:26:40;;;;;;;;;;;11.40;99.90;;;;;;5057119;28;20427;-78
2023/06/01 03:29:06;;;;;;;;;;;11.40;99.90;;;;;;5057949;28;20401;-79
2023/06/01 03:31:34;;;;;;;;;;;11.40;99.90;;;;;;5074362;28;19932;-79
2023/06/01 03:34:00;;;;;;;;;;;11.30;99.90;;;;;;5072443;28;20011;-79
2023/06/01 03:36:26;;;;;;;;;;;11.30;99.90;;;;;;5089299;28;20298;-79
2023/06/01 03:38:51;;;;;;;;;;;11.30;99.90;;;;;;5055344;28;19924;-79
2023/06/01 03:41:17;;;;;;;;;;;11.30;99.90;;;;;;5078715;28;19992;-79
2023/06/01 03:43:42;;;;;;;;;;;11.30;99.90;;;;;;5057862;28;19932;-79
2023/06/01 03:46:08;;;;;;;;;;;11.30;99.90;;;;;;5054077;28;20390;-79
2023/06/01 03:48:34;;;;;;;;;;;11.30;99.90;;;;;;5039615;28;19929;-79
2023/06/01 03:51:00;;;;;;;;;;;11.40;99.90;;;;;;5069732;28;19982;-78
2023/06/01 03:53:25;;;;;;;;;;;11.40;99.90;;;;;;5071270;28;19929;-78
2023/06/01 03:55:52;;;;;;;;;;;11.50;99.90;;;;;;5086063;28;19932;-79
2023/06/01 03:58:19;;;;;;;;;;;11.50;99.90;;;;;;5104738;28;20480;-79
2023/06/01 04:00:46;;;;;;;;;;;11.40;99.90;;;;;;5056454;28;19925;-78
2023/06/01 04:03:13;;;;;;;;;;;11.50;99.90;;;;;;5087974;28;19924;-79
2023/06/01 04:05:38;;;;;;;;;;;11.40;99.90;;;;;;5056954;28;19944;-78
2023/06/01 04:08:04;;;;;;;;;;;11.50;99.90;;;;;;5088265;28;19932;-79
2023/06/01 04:10:30;;;;;;;;;;;11.50;99.90;;;;;;5073504;28;19925;-78
2023/06/01 04:12:55;;;;;;;;;;;11.50;99.90;;;;;;5071299;28;20368;-79
2023/06/01 04:15:22;;;;;;;;;;;11.50;99.90;;;;;;5073625;28;19924;-79
2023/06/01 04:17:47;;;;;;;;;;;11.50;99.90;;;;;;5055606;28;19924;-79
2023/06/01 04:20:15;;;;;;;;;;;11.50;99.90;;;;;;5086149;28;20416;-79
2023/06/01 04:22:41;;;;;;;;;;;11.50;99.90;;;;;;5088258;28;19988;-78
2023/06/01 04:25:17;;;;;;;;;;;11.50;99.90;;;;;;5070645;28;19981;-79
2023/06/01 04:27:44;;;;;;;;;;;11.60;99.90;;;;;;5089983;28;20575;-79
2023/06/01 04:30:10;;;;;;;;;;;11.60;99.90;;;;;;5074653;28;19924;-79
2023/06/01 04:32:37;;;;;;;;;;;11.60;99.90;;;;;;5055327;28;19974;-79
2023/06/01 04:35:05;;;;;;;;;;;11.60;99.90;;;;;;5053776;28;20315;-79
2023/06/01 04:37:34;;;;;;;;;;;11.70;99.90;;;;;;5053958;28;20017;-79
2023/06/01 04:40:09;;;;;;;;;;;11.60;99.90;;;;;;5070804;28;19931;-79
2023/06/01 04:42:36;;;;;;;;;;;11.70;99.90;;;;;;5069288;28;20024;-79
2023/06/01 04:45:07;;;;;;;;;;;11.80;99.90;;;;;;5064095;28;20383;-79
2023/06/01 04:47:44;;;;;;;;;;;11.70;99.90;;;;;;5075118;28;19932;-79
2023/06/01 04:50:11;;;;;;;;;;;11.70;99.90;;;;;;5099339;28;20302;-79
2023/06/01 04:52:37;;;;;;;;;;;11.70;99.90;;;;;;5077175;28;20411;-79
2023/06/01 04:55:04;;;;;;;;;;;11.70;99.90;;;;;;5079253;28;19924;-79
2023/06/01 04:57:30;;;;;;;;;;;11.70;99.90;;;;;;5061773;28;20430;-79
2023/06/01 04:59:56;;;;;;;;;;;11.80;99.90;;;;;;5079518;28;19924;-79
2023/06/01 05:02:23;;;;;;;;;;;11.80;99.90;;;;;;5075831;28;19924;-79
2023/06/01 05:04:49;;;;;;;;;;;11.80;99.90;;;;;;5077813;28;19928;-79
2023/06/01 05:07:15;;;;;;;;;;;11.80;99.90;;;;;;5063132;28;19925;-79
2023/06/01 05:09:41;;;;;;;;;;;11.90;99.90;;;;;;5083494;28;19939;-77
2023/06/01 05:12:07;;;;;;;;;;;11.90;99.90;;;;;;5105078;28;19928;-78
2023/06/01 05:14:32;;;;;;;;;;;11.90;99.90;;;;;;5101321;28;19990;-79
2023/06/01 05:16:58;;;;;;;;;;;11.90;99.90;;;;;;5081695;28;19936;-78
2023/06/01 05:19:23;;;;;;;;;;;11.90;99.90;;;;;;5125769;27;19924;-79
2023/06/01 05:21:49;;;;;;;;;;;11.90;99.90;;;;;;5064394;28;20001;-79
2023/06/01 05:24:14;;;;;;;;;;;11.90;99.90;;;;;;5046195;28;19951;-78
2023/06/01 05:26:40;;;;;;;;;;;11.90;99.90;;;;;;5079440;28;19960;-79
2023/06/01 05:29:06;;;;;;;;;;;11.90;99.90;;;;;;5063825;28;19928;-78
2023/06/01 05:31:31;;;;;;;;;;;11.90;99.90;;;;;;5079449;28;19929;-78
2023/06/01 05:33:57;;;;;;;;;;;12.00;99.90;;;;;;5076548;28;20015;-78
2023/06/01 05:36:23;;;;;;;;;;;12.00;99.90;;;;;;5077584;28;19940;-79
2023/06/01 05:38:48;;;;;;;;;;;12.00;99.90;;;;;;5076442;28;19928;-79
2023/06/01 05:41:14;;;;;;;;;;;12.00;99.90;;;;;;5093724;28;19928;-78
2023/06/01 05:43:39;;;;;;;;;;;12.10;99.90;;;;;;5077347;28;20010;-78
2023/06/01 05:46:06;;;;;;;;;;;12.00;99.90;;;;;;5063292;28;19924;-78
2023/06/01 05:48:32;;;;;;;;;;;12.00;99.90;;;;;;5052924;28;19939;-78
2023/06/01 05:50:57;;;;;;;;;;;12.10;99.90;;;;;;5061250;28;19924;-78
2023/06/01 05:53:24;;;;;;;;;;;12.00;99.90;;;;;;5063800;28;19993;-79
2023/06/01 05:55:53;;;;;;;;;;;12.10;99.90;;;;;;5094136;28;19939;-78
2023/06/01 05:58:19;;;;;;;;;;;12.10;99.90;;;;;;5061008;28;19935;-79
2023/06/01 06:00:44;;;;;;;;;;;12.10;99.90;;;;;;5078353;28;19928;-78
2023/06/01 06:03:10;;;;;;;;;;;12.10;99.90;;;;;;5096079;28;20001;-79
2023/06/01 06:05:36;;;;;;;;;;;12.10;99.90;;;;;;5063053;28;19978;-78
2023/06/01 06:08:02;;;;;;;;;;;12.20;99.90;;;;;;5060256;28;20331;-79
2023/06/01 06:10:28;;;;;;;;;;;12.20;99.90;;;;;;5079280;28;19924;-78
2023/06/01 06:12:53;;;;;;;;;;;12.20;99.90;;;;;;5059547;28;19932;-78
2023/06/01 06:15:19;;;;;;;;;;;12.10;99.90;;;;;;5061736;28;19931;-77
2023/06/01 06:17:45;;;;;;;;;;;12.10;99.90;;;;;;5092466;28;19932;-78
2023/06/01 06:20:11;;;;;;;;;;;12.10;99.90;;;;;;5063188;28;20010;-78
2023/06/01 06:22:37;;;;;;;;;;;12.10;99.90;;;;;;5095160;28;19931;-80
2023/06/01 06:25:03;;;;;;;;;;;12.10;99.90;;;;;;5111201;27;19928;-78
2023/06/01 06:27:29;;;;;;;;;;;12.00;99.90;;;;;;5075781;28;19955;-78
2023/06/01 06:29:55;;;;;;;;;;;12.10;99.90;;;;;;5059708;28;19935;-78
2023/06/01 06:32:20;;;;;;;;;;;12.10;99.90;;;;;;5090588;28;19928;-78
2023/06/01 06:34:46;;;;;;;;;;;12.10;99.90;;;;;;5077236;28;19924;-78
2023/06/01 06:37:11;;;;;;;;;;;12.10;99.90;;;;;;5058745;28;20023;-77
2023/06/01 06:39:37;;;;;;;;;;;12.10;99.90;;;;;;5060132;28;19933;-78
2023/06/01 06:42:03;;;;;;;;;;;12.10;99.90;;;;;;5055839;28;19962;-78
2023/06/01 06:44:29;;;;;;;;;;;12.10;99.90;;;;;;5107996;28;19951;-78
2023/06/01 06:46:55;;;;;;;;;;;12.10;99.90;;;;;;5088251;28;19930;-77
2023/06/01 06:49:20;;;;;;;;;;;12.20;99.90;;;;;;5087119;28;19946;-78
2023/06/01 06:51:46;;;;;;;;;;;12.20;99.90;;;;;;5071056;28;20011;-78
2023/06/01 06:54:12;;;;;;;;;;;12.20;99.90;;;;;;5070256;28;19975;-79
2023/06/01 06:56:37;;;;;;;;;;;12.20;99.90;;;;;;5051813;28;19928;-77
2023/06/01 06:59:03;;;;;;;;;;;12.30;99.90;;;;;;5074824;28;19924;-77
2023/06/01 07:01:28;;;;;;;;;;;12.30;99.90;;;;;;5071400;28;19932;-78
2023/06/01 07:03:55;;;;;;;;;;;12.40;99.90;;;;;;5057699;28;19932;-78
2023/06/01 07:06:22;;;;;;;;;;;12.40;99.90;;;;;;5088357;28;19928;-78
2023/06/01 07:08:48;;;;;;;;;;;12.40;99.90;;;;;;5090363;28;20335;-78
2023/06/01 07:11:14;;;;;;;;;;;12.40;99.90;;;;;;5098586;28;19928;-78
2023/06/01 07:13:39;;;;;;;;;;;12.40;99.90;;;;;;5036459;28;19946;-78
2023/06/01 07:16:05;;;;;;;;;;;12.50;99.90;;;;;;5085080;28;20070;-78
2023/06/01 07:18:30;;;;;;;;;;;12.50;99.90;;;;;;5072745;28;20492;-78
2023/06/01 07:20:57;;;;;;;;;;;12.60;99.90;;;;;;5087397;28;19939;-78
2023/06/01 07:23:23;;;;;;;;;;;12.60;99.90;;;;;;5077464;28;19925;-78
2023/06/01 07:25:48;;;;;;;;;;;12.70;99.90;;;;;;5096242;28;19933;-78
2023/06/01 07:28:15;;;;;;;;;;;12.70;99.90;;;;;;5065130;28;20015;-78
2023/06/01 07:30:41;;;;;;;;;;;12.70;99.90;;;;;;5074519;28;19925;-77
2023/06/01 07:33:07;;;;;;;;;;;12.70;99.90;;;;;;5056231;28;19982;-78
2023/06/01 07:35:33;;;;;;;;;;;12.80;99.90;;;;;;5054652;28;20356;-77
2023/06/01 07:37:59;;;;;;;;;;;12.90;99.90;;;;;;5086091;28;19944;-78
2023/06/01 07:40:25;;;;;;;;;;;13.00;99.90;;;;;;5072247;28;19928;-78
2023/06/01 07:42:50;;;;;;;;;;;13.10;99.90;;;;;;5084756;28;19951;-78
2023/06/01 07:45:16;;;;;;;;;;;13.10;99.90;;;;;;5071667;28;19928;-78
2023/06/01 07:47:42;;;;;;;;;;;13.20;99.90;;;;;;5068890;28;19932;-78
2023/06/01 07:50:08;;;;;;;;;;;13.30;99.90;;;;;;5058422;28;19925;-77
2023/06/01 07:52:34;;;;;;;;;;;13.30;99.90;;;;;;5089505;28;19928;-78
2023/06/01 07:54:59;;;;;;;;;;;13.40;99.90;;;;;;5086770;28;20511;-78
2023/06/01 07:57:25;;;;;;;;;;;13.40;99.90;;;;;;5073196;28;20387;-78
2023/06/01 07:59:51;;;;;;;;;;;13.50;99.90;;;;;;5069657;28;19970;-78
2023/06/01 08:02:16;;;;;;;;;;;13.60;99.90;;;;;;5073107;28;19982;-79
2023/06/01 08:04:44;;;;;;;;;;;13.70;99.90;;;;;;5080266;28;19924;-79
2023/06/01 08:07:12;;;;;;;;;;;13.80;99.90;;;;;;5061113;28;19925;-79
2023/06/01 08:09:37;;;;;;;;;;;13.80;99.90;;;;;;5077156;28;20322;-77
2023/06/01 08:12:03;;;;;;;;;;;13.80;99.90;;;;;;5079948;28;20027;-79
2023/06/01 08:14:33;;;;;;;;;;;13.90;99.90;;;;;;5097989;28;19932;-78
2023/06/01 08:17:01;;;;;;;;;;;13.90;99.90;;;;;;5097913;28;19933;-78
2023/06/01 08:19:27;;;;;;;;;;;14.00;99.90;;;;;;5070534;28;19924;-78
2023/06/01 08:21:53;;;;;;;;;;;14.10;99.90;;;;;;5055610;28;19980;-78
2023/06/01 08:24:24;;;;;;;;;;;14.10;99.90;;;;;;5074603;28;19939;-78
2023/06/01 08:26:50;;;;;;;;;;;14.10;99.90;;;;;;5092625;28;19924;-78
2023/06/01 08:29:16;;;;;;;;;;;14.10;99.90;;;;;;5076979;28;20335;-78
2023/06/01 08:31:41;;;;;;;;;;;14.20;99.90;;;;;;5048877;28;19924;-79
2023/06/01 08:34:07;;;;;;;;;;;14.20;99.90;;;;;;5105015;28;19925;-77
2023/06/01 08:36:33;;;;;;;;;;;14.20;99.90;;;;;;5088227;28;20020;-78
2023/06/01 08:38:58;;;;;;;;;;;14.20;99.90;;;;;;5075218;28;19929;-78
2023/06/01 08:41:39;;;;;;;;;;;14.30;99.90;;;;;;5048009;28;19924;-78
2023/06/01 08:44:07;;;;;;;;;;;14.30;99.90;;;;;;5092505;28;19924;-78
2023/06/01 08:46:34;;;;;;;;;;;14.30;99.90;;;;;;5063201;28;19928;-78
2023/06/01 08:49:01;;;;;;;;;;;14.30;99.90;;;;;;5078685;28;19925;-79
2023/06/01 08:51:26;;;;;;;;;;;14.50;99.90;;;;;;5073426;28;19928;-79
2023/06/01 08:53:53;;;;;;;;;;;14.50;99.90;;;;;;5110964;28;20026;-79
2023/06/01 08:56:19;;;;;;;;;;;14.60;99.90;;;;;;5083350;28;19951;-79
2023/06/01 08:58:45;;;;;;;;;;;14.70;99.90;;;;;;5076909;28;20387;-79
2023/06/01 09:01:21;;;;;;;;;;;14.70;99.90;;;;;;5058767;28;20004;-79
2023/06/01 09:03:51;;;;;;;;;;;14.70;99.90;;;;;;5072274;28;19924;-79
2023/06/01 09:06:17;;;;;;;;;;;14.80;99.90;;;;;;5082745;28;19924;-78
2023/06/01 09:08:44;;;;;;;;;;;14.70;99.90;;;;;;5072925;28;20318;-79
2023/06/01 09:11:09;;;;;;;;;;;14.70;99.90;;;;;;5057128;28;19928;-79
2023/06/01 09:13:36;;;;;;;;;;;14.70;99.90;;;;;;5114823;28;20021;-79
2023/06/01 09:16:02;;;;;;;;;;;14.70;99.90;;;;;;5083157;28;19925;-79
2023/06/01 09:18:27;;;;;;;;;;;14.80;99.90;;;;;;5096475;28;19970;-79
2023/06/01 09:20:54;;;;;;;;;;;14.80;99.90;;;;;;5113432;28;19932;-79
2023/06/01 09:23:26;;;;;;;;;;;14.80;99.90;;;;;;5077292;28;19935;-79
2023/06/01 09:26:04;;;;;;;;;;;14.90;99.90;;;;;;5077107;28;20047;-79
2023/06/01 09:28:30;;;;;;;;;;;14.80;99.90;;;;;;5075231;28;19929;-79
2023/06/01 09:30:56;;;;;;;;;;;14.90;99.90;;;;;;5062480;28;19924;-79
2023/06/01 09:33:23;;;;;;;;;;;14.90;99.90;;;;;;5091849;28;19956;-79
2023/06/01 09:35:49;;;;;;;;;;;14.90;99.90;;;;;;5073931;28;19948;-79
2023/06/01 09:38:22;;;;;;;;;;;15.00;99.90;;;;;;5059441;28;19928;-80
2023/06/01 09:41:01;;;;;;;;;;;15.00;99.90;;;;;;5060869;28;19924;-79
2023/06/01 09:43:27;;;;;;;;;;;15.00;99.90;;;;;;5088451;28;20511;-80
2023/06/01 09:46:09;;;;;;;;;;;14.90;99.90;;;;;;5093025;28;19950;-79
2023/06/01 09:48:35;;;;;;;;;;;14.90;99.90;;;;;;5071483;28;19928;-80
2023/06/01 09:51:00;;;;;;;;;;;14.90;99.90;;;;;;5058856;28;19975;-80
2023/06/01 09:53:26;;;;;;;;;;;14.90;99.90;;;;;;5068350;28;19981;-80
2023/06/01 09:55:59;;;;;;;;;;;14.90;99.90;;;;;;5060449;28;19931;-78
2023/06/01 09:58:25;;;;;;;;;;;14.90;99.90;;;;;;5081378;28;19947;-79
2023/06/01 10:00:51;;;;;;;;;;;14.90;99.90;;;;;;5059794;28;19924;-80
2023/06/01 10:03:18;;;;;;;;;;;14.90;99.90;;;;;;5066517;28;19932;-80
2023/06/01 10:05:45;;;;;;;;;;;14.90;99.90;;;;;;5081909;28;19924;-79
2023/06/01 10:08:12;;;;;;;;;;;14.80;99.90;;;;;;5060539;28;19936;-79
2023/06/01 10:10:38;;;;;;;;;;;14.80;99.90;;;;;;5083009;28;19925;-80
2023/06/01 10:13:04;;;;;;;;;;;14.70;99.90;;;;;;5077522;28;19928;-78
2023/06/01 10:15:29;;;;;;;;;;;14.70;99.90;;;;;;5093677;28;19982;-79
2023/06/01 10:17:55;;;;;;;;;;;14.80;99.90;;;;;;5068184;28;19924;-78
2023/06/01 10:20:21;;;;;;;;;;;14.80;99.90;;;;;;5094941;28;19936;-79
2023/06/01 10:22:47;;;;;;;;;;;14.80;99.90;;;;;;5095744;28;19931;-79
2023/06/01 10:25:15;;;;;;;;;;;14.80;99.90;;;;;;5065508;28;19932;-79
2023/06/01 10:27:45;;;;;;;;;;;14.70;99.90;;;;;;5083421;28;19971;-79
2023/06/01 10:30:10;;;;;;;;;;;14.60;99.90;;;;;;5083054;28;19928;-80
2023/06/01 10:32:36;;;;;;;;;;;14.60;99.90;;;;;;5064249;28;20407;-79
2023/06/01 10:35:02;;;;;;;;;;;14.60;99.90;;;;;;5083791;28;20387;-79
2023/06/01 10:37:28;;;;;;;;;;;14.50;99.90;;;;;;5094947;28;19932;-79
2023/06/01 10:40:08;;;;;;;;;;;14.40;99.90;;;;;;5086222;28;19924;-79
2023/06/01 10:42:35;;;;;;;;;;;14.40;99.90;;;;;;5078277;28;19925;-79
2023/06/01 10:45:01;;;;;;;;;;;14.40;99.90;;;;;;5096407;28;19924;-78
2023/06/01 10:47:26;;;;;;;;;;;14.50;99.90;;;;;;5062708;28;19939;-78
2023/06/01 10:49:52;;;;;;;;;;;14.50;99.90;;;;;;5073434;28;20046;-78
2023/06/01 10:52:38;;;;;;;;;;;14.50;99.90;;;;;;5084704;28;20008;-78
2023/06/01 10:55:06;;;;;;;;;;;14.60;99.90;;;;;;5073099;28;19924;-79
2023/06/01 10:57:35;;;;;;;;;;;14.50;99.90;;;;;;5071519;28;19954;-79
2023/06/01 11:00:20;;;;;;;;;;;14.50;99.90;;;;;;5056485;28;19924;-78
2023/06/01 11:03:01;;;;;;;;;;;14.70;99.90;;;;;;5105973;27;19956;-79
2023/06/01 11:05:50;;;;;;;;;;;14.70;99.90;;;;;;5089103;28;19958;-78
2023/06/01 11:08:19;;;;;;;;;;;14.80;99.90;;;;;;5099614;27;20943;-78
2023/06/01 11:10:54;;;;;;;;;;;14.90;99.90;;;;;;5074660;28;19925;-79
2023/06/01 11:13:21;;;;;;;;;;;14.90;99.90;;;;;;5089674;28;19939;-79
2023/06/01 11:16:06;;;;;;;;;;;15.00;99.90;;;;;;5059830;28;19939;-78
2023/06/01 11:18:58;;;;;;;;;;;15.10;99.90;;;;;;5092757;28;19928;-78
2023/06/01 11:21:37;;;;;;;;;;;15.10;99.90;;;;;;5103739;27;19995;-79
2023/06/01 11:24:13;;;;;;;;;;;15.10;99.90;;;;;;5111379;27;19929;-78
2023/06/01 11:26:41;;;;;;;;;;;15.10;99.90;;;;;;5075781;28;19939;-78
2023/06/01 11:29:07;;;;;;;;;;;15.10;99.90;;;;;;5093862;28;19955;-78
2023/06/01 11:31:40;;;;;;;;;;;15.10;99.90;;;;;;5061204;28;19939;-77
2023/06/01 11:34:06;;;;;;;;;;;15.10;99.90;;;;;;5108293;28;19957;-78
2023/06/01 11:36:36;;;;;;;;;;;15.10;99.90;;;;;;5095690;28;19932;-78
2023/06/01 11:39:02;;;;;;;;;;;15.10;99.90;;;;;;5074776;28;19974;-78
2023/06/01 11:41:27;;;;;;;;;;;15.10;99.90;;;;;;5092828;28;19924;-78
2023/06/01 11:43:57;;;;;;;;;;;15.10;99.90;;;;;;5111499;28;19959;-78
2023/06/01 11:46:23;;;;;;;;;;;15.20;99.90;;;;;;5068767;28;20014;-78
2023/06/01 11:49:18;;;;;;;;;;;15.30;99.90;;;;;;5110636;28;19936;-78
2023/06/01 11:51:44;;;;;;;;;;;15.30;99.90;;;;;;5043563;28;19935;-79
2023/06/01 11:54:09;;;;;;;;;;;15.50;99.90;;;;;;5066965;28;19923;-78
2023/06/01 11:56:42;;;;;;;;;;;15.40;99.90;;;;;;5072116;28;19931;-78
2023/06/01 11:59:09;;;;;;;;;;;15.50;99.90;;;;;;5086558;28;19924;-79
2023/06/01 12:01:36;;;;;;;;;;;15.40;99.90;;;;;;5090057;28;19928;-79
2023/06/01 12:04:02;;;;;;;;;;;15.40;99.90;;;;;;5085349;28;19939;-79
2023/06/01 12:06:28;;;;;;;;;;;15.50;99.90;;;;;;5102682;28;19935;-79
2023/06/01 12:08:57;;;;;;;;;;;15.60;99.90;;;;;;5069846;28;19971;-78
2023/06/01 12:11:26;;;;;;;;;;;15.60;99.90;;;;;;5084715;28;20288;-79
2023/06/01 12:13:53;;;;;;;;;;;15.70;99.90;;;;;;5095322;28;19924;-78
2023/06/01 12:16:18;;;;;;;;;;;15.70;99.90;;;;;;5065652;28;19925;-79
2023/06/01 12:18:44;;;;;;;;;;;15.70;99.90;;;;;;5065149;28;20002;-78
2023/06/01 12:21:13;;;;;;;;;;;15.70;99.90;;;;;;5104973;28;20085;-79
2023/06/01 12:23:39;;;;;;;;;;;15.80;99.90;;;;;;5066084;28;19928;-79
2023/06/01 12:26:07;;;;;;;;;;;15.90;99.90;;;;;;5085757;28;19934;-79
2023/06/01 12:28:48;;;;;;;;;;;15.90;99.90;;;;;;5083204;28;19991;-79
2023/06/01 12:31:15;;;;;;;;;;;16.00;99.90;;;;;;5085263;28;19977;-81
2023/06/01 12:33:41;;;;;;;;;;;16.20;99.90;;;;;;5060704;28;19931;-80
2023/06/01 12:36:07;;;;;;;;;;;16.30;99.90;;;;;;5049580;28;20395;-81
2023/06/01 12:38:37;;;;;;;;;;;16.40;99.90;;;;;;5069978;28;19931;-81
2023/06/01 12:41:11;;;;;;;;;;;16.30;99.90;;;;;;5078750;28;20017;-80
2023/06/01 12:43:46;;;;;;;;;;;16.30;99.90;;;;;;5080301;28;20034;-80
2023/06/01 12:46:22;;;;;;;;;;;16.50;99.90;;;;;;5080014;28;19967;-79
2023/06/01 12:48:48;;;;;;;;;;;16.60;99.90;;;;;;5078300;28;19924;-80
2023/06/01 12:51:14;;;;;;;;;;;16.60;99.90;;;;;;5078189;28;19930;-80
2023/06/01 12:53:42;;;;;;;;;;;16.70;99.90;;;;;;5083885;28;19924;-80
2023/06/01 12:56:07;;;;;;;;;;;16.60;99.90;;;;;;5077533;28;19924;-81
2023/06/01 12:58:33;;;;;;;;;;;16.60;99.90;;;;;;5064580;28;19946;-81
2023/06/01 13:00:59;;;;;;;;;;;16.60;99.90;;;;;;5051880;28;20063;-80
2023/06/01 13:03:24;;;;;;;;;;;16.70;99.90;;;;;;5081947;28;19932;-81
2023/06/01 13:05:51;;;;;;;;;;;16.60;99.90;;;;;;5065308;28;19924;-80
2023/06/01 13:08:16;;;;;;;;;;;16.70;99.90;;;;;;5077218;28;20505;-81
2023/06/01 13:10:42;;;;;;;;;;;16.60;99.90;;;;;;5048461;28;19963;-82
2023/06/01 13:13:08;;;;;;;;;;;16.60;99.90;;;;;;5095132;28;19951;-81
2023/06/01 13:15:34;;;;;;;;;;;16.60;99.90;;;;;;5066506;28;19928;-82
2023/06/01 13:18:00;;;;;;;;;;;16.50;99.90;;;;;;5066645;28;21645;-82
2023/06/01 13:20:26;;;;;;;;;;;16.50;99.90;;;;;;5085875;28;19928;-81
2023/06/01 13:22:52;;;;;;;;;;;16.50;99.90;;;;;;5080548;28;19931;-83
2023/06/01 13:25:18;;;;;;;;;;;16.40;99.90;;;;;;5084088;28;19924;-81
2023/06/01 13:27:45;;;;;;;;;;;16.40;99.90;;;;;;5052502;28;19958;-81
2023/06/01 13:30:10;;;;;;;;;;;16.40;99.90;;;;;;5080930;28;19987;-81
2023/06/01 13:32:36;;;;;;;;;;;16.40;99.90;;;;;;5092011;28;19924;-81
2023/06/01 13:35:02;;;;;;;;;;;16.40;99.90;;;;;;5066722;28;20005;-80
2023/06/01 13:37:27;;;;;;;;;;;16.40;99.90;;;;;;5080977;28;19956;-82
2023/06/01 13:39:53;;;;;;;;;;;16.40;99.90;;;;;;5047528;28;19931;-82
2023/06/01 13:42:18;;;;;;;;;;;16.30;99.90;;;;;;5058597;28;19932;-82
2023/06/01 13:44:46;;;;;;;;;;;16.30;99.90;;;;;;5075883;28;19938;-80
2023/06/01 13:47:15;;;;;;;;;;;16.10;99.90;;;;;;5074391;28;19930;-81
2023/06/01 13:49:42;;;;;;;;;;;16.20;99.90;;;;;;5061676;28;20411;-81
2023/06/01 13:52:08;;;;;;;;;;;16.20;99.90;;;;;;5073663;28;19926;-80
2023/06/01 13:54:33;;;;;;;;;;;16.20;99.90;;;;;;5093436;28;19928;-83
2023/06/01 13:56:59;;;;;;;;;;;16.20;99.90;;;;;;5092628;28;19935;-82
2023/06/01 13:59:25;;;;;;;;;;;16.20;99.90;;;;;;5072751;28;19939;-82
2023/06/01 14:01:50;;;;;;;;;;;16.20;99.90;;;;;;5076878;28;19928;-82
2023/06/01 14:04:17;;;;;;;;;;;16.30;99.90;;;;;;5056506;28;19982;-83
2023/06/01 14:06:42;;;;;;;;;;;16.20;99.90;;;;;;5075783;28;20238;-82
2023/06/01 14:09:08;;;;;;;;;;;16.20;99.90;;;;;;5076522;28;19988;-80
2023/06/01 14:11:34;;;;;;;;;;;16.20;99.90;;;;;;5074468;28;20459;-82
2023/06/01 14:14:00;;;;;;;;;;;16.20;99.90;;;;;;5052305;28;20002;-82
2023/06/01 14:16:25;;;;;;;;;;;16.20;99.90;;;;;;5088024;28;19931;-81